sensor_id;sensor_type;location;lat;lon;timestamp;pressure;altitude;pressure_sealevel;temperature;humidity
19884;BME280;10104;50.732;10.174;2023-04-15T00:00:50;96999.59;;;5.89;66.22
19884;BME280;10104;50.732;10.174;2023-04-15T00:03:12;96998.16;;;5.86;66.50
19884;BME280;10104;50.732;10.174;2023-04-15T00:05:34;96992.31;;;5.76;67.40
19884;BME280;10104;50.732;10.174;2023-04-15T00:07:56;96996.75;;;5.76;67.44
19884;BME280;10104;50.732;10.174;2023-04-15T00:10:19;96990.31;;;5.63;68.20
19884;BME280;10104;50.732;10.174;2023-04-15T00:12:40;96985.88;;;5.64;68.22
19884;BME280;10104;50.732;10.174;2023-04-15T00:15:02;96986.66;;;5.50;69.01
19884;BME280;10104;50.732;10.174;2023-04-15T00:17:24;96995.22;;;5.66;68.29
19884;BME280;10104;50.732;10.174;2023-04-15T00:19:46;96991.31;;;5.62;67.52
19884;BME280;10104;50.732;10.174;2023-04-15T00:22:07;96989.69;;;5.61;67.75
19884;BME280;10104;50.732;10.174;2023-04-15T00:24:29;96987.25;;;5.60;67.81
19884;BME280;10104;50.732;10.174;2023-04-15T00:26:51;96983.69;;;5.53;68.57
19884;BME280;10104;50.732;10.174;2023-04-15T00:29:14;96978.78;;;5.50;68.26
19884;BME280;10104;50.732;10.174;2023-04-15T00:31:35;96975.19;;;5.51;68.50
19884;BME280;10104;50.732;10.174;2023-04-15T00:33:57;96976.47;;;5.55;68.23
19884;BME280;10104;50.732;10.174;2023-04-15T00:36:18;96977.97;;;5.35;70.07
19884;BME280;10104;50.732;10.174;2023-04-15T00:38:40;96971.72;;;5.36;70.52
19884;BME280;10104;50.732;10.174;2023-04-15T00:41:02;96974.19;;;5.14;71.86
19884;BME280;10104;50.732;10.174;2023-04-15T00:43:24;96970.63;;;5.30;70.67
19884;BME280;10104;50.732;10.174;2023-04-15T00:45:46;96972.44;;;5.29;69.85
19884;BME280;10104;50.732;10.174;2023-04-15T00:48:08;96964.03;;;5.34;69.72
19884;BME280;10104;50.732;10.174;2023-04-15T00:50:32;96974.69;;;5.33;70.09
19884;BME280;10104;50.732;10.174;2023-04-15T00:52:53;96967.81;;;5.32;71.13
19884;BME280;10104;50.732;10.174;2023-04-15T00:55:15;96963.22;;;5.34;71.34
19884;BME280;10104;50.732;10.174;2023-04-15T00:57:37;96964.63;;;5.21;73.81
19884;BME280;10104;50.732;10.174;2023-04-15T01:00:00;96960.53;;;5.19;73.85
19884;BME280;10104;50.732;10.174;2023-04-15T01:02:22;96963.91;;;5.27;72.34
19884;BME280;10104;50.732;10.174;2023-04-15T01:04:44;96965.44;;;5.22;74.40
19884;BME280;10104;50.732;10.174;2023-04-15T01:07:05;96963.22;;;5.34;72.72
19884;BME280;10104;50.732;10.174;2023-04-15T01:09:27;96968.13;;;5.37;72.94
19884;BME280;10104;50.732;10.174;2023-04-15T01:11:48;96960.72;;;5.17;76.00
19884;BME280;10104;50.732;10.174;2023-04-15T01:14:10;96953.69;;;5.18;75.01
19884;BME280;10104;50.732;10.174;2023-04-15T01:16:32;96957.41;;;5.01;76.81
19884;BME280;10104;50.732;10.174;2023-04-15T01:18:53;96950.31;;;5.09;76.25
19884;BME280;10104;50.732;10.174;2023-04-15T01:21:16;96949.47;;;5.09;76.55
19884;BME280;10104;50.732;10.174;2023-04-15T01:23:38;96950.97;;;5.26;74.61
19884;BME280;10104;50.732;10.174;2023-04-15T01:26:00;96956.97;;;5.35;74.10
19884;BME280;10104;50.732;10.174;2023-04-15T01:28:21;96951.44;;;5.44;74.06
19884;BME280;10104;50.732;10.174;2023-04-15T01:30:43;96953.25;;;5.44;73.98
19884;BME280;10104;50.732;10.174;2023-04-15T01:33:04;96952.19;;;5.53;73.08
19884;BME280;10104;50.732;10.174;2023-04-15T01:35:26;96952.19;;;5.53;73.11
19884;BME280;10104;50.732;10.174;2023-04-15T01:37:48;96957.72;;;5.58;72.62
19884;BME280;10104;50.732;10.174;2023-04-15T01:40:10;96951.03;;;5.55;73.33
19884;BME280;10104;50.732;10.174;2023-04-15T01:42:31;96948.31;;;5.49;75.06
19884;BME280;10104;50.732;10.174;2023-04-15T01:44:53;96951.09;;;5.62;73.30
19884;BME280;10104;50.732;10.174;2023-04-15T01:47:15;96949.38;;;5.69;72.92
19884;BME280;10104;50.732;10.174;2023-04-15T01:49:36;96943.97;;;5.70;72.58
19884;BME280;10104;50.732;10.174;2023-04-15T01:51:58;96949.03;;;5.72;73.02
19884;BME280;10104;50.732;10.174;2023-04-15T01:54:19;96944.41;;;5.59;75.06
19884;BME280;10104;50.732;10.174;2023-04-15T01:56:40;96939.25;;;5.51;76.88
19884;BME280;10104;50.732;10.174;2023-04-15T01:59:02;96935.63;;;5.52;75.80
19884;BME280;10104;50.732;10.174;2023-04-15T02:01:24;96933.66;;;5.54;76.00
19884;BME280;10104;50.732;10.174;2023-04-15T02:03:46;96936.63;;;5.51;77.06
19884;BME280;10104;50.732;10.174;2023-04-15T02:06:08;96928.91;;;5.50;76.85
19884;BME280;10104;50.732;10.174;2023-04-15T02:08:30;96933.53;;;5.48;76.64
19884;BME280;10104;50.732;10.174;2023-04-15T02:10:51;96940.25;;;5.65;75.19
19884;BME280;10104;50.732;10.174;2023-04-15T02:13:13;96939.88;;;5.68;75.30
19884;BME280;10104;50.732;10.174;2023-04-15T02:15:35;96931.00;;;5.69;75.01
19884;BME280;10104;50.732;10.174;2023-04-15T02:17:56;96925.59;;;5.70;75.59
19884;BME280;10104;50.732;10.174;2023-04-15T02:20:19;96930.75;;;5.64;78.13
19884;BME280;10104;50.732;10.174;2023-04-15T02:22:41;96925.75;;;5.69;77.53
19884;BME280;10104;50.732;10.174;2023-04-15T02:25:03;96930.94;;;5.77;76.36
19884;BME280;10104;50.732;10.174;2023-04-15T02:27:25;96928.94;;;5.79;76.72
19884;BME280;10104;50.732;10.174;2023-04-15T02:29:46;96922.31;;;5.54;81.33
19884;BME280;10104;50.732;10.174;2023-04-15T02:32:08;96924.94;;;5.68;79.17
19884;BME280;10104;50.732;10.174;2023-04-15T02:34:29;96926.94;;;5.81;78.21
19884;BME280;10104;50.732;10.174;2023-04-15T02:36:52;96930.66;;;5.72;79.63
19884;BME280;10104;50.732;10.174;2023-04-15T02:39:17;96929.38;;;5.68;80.27
19884;BME280;10104;50.732;10.174;2023-04-15T02:41:39;96934.00;;;5.66;80.59
19884;BME280;10104;50.732;10.174;2023-04-15T02:44:00;96925.75;;;5.69;79.99
19884;BME280;10104;50.732;10.174;2023-04-15T02:46:22;96929.19;;;5.69;79.78
19884;BME280;10104;50.732;10.174;2023-04-15T02:48:43;96931.56;;;5.64;79.61
19884;BME280;10104;50.732;10.174;2023-04-15T02:51:18;96924.59;;;5.72;79.43
19884;BME280;10104;50.732;10.174;2023-04-15T02:53:40;96921.13;;;5.56;81.52
19884;BME280;10104;50.732;10.174;2023-04-15T02:56:01;96925.41;;;5.57;81.46
19884;BME280;10104;50.732;10.174;2023-04-15T02:58:23;96927.66;;;5.60;82.43
19884;BME280;10104;50.732;10.174;2023-04-15T03:00:45;96929.84;;;5.72;81.19
19884;BME280;10104;50.732;10.174;2023-04-15T03:03:06;96919.69;;;5.68;80.56
19884;BME280;10104;50.732;10.174;2023-04-15T03:05:28;96919.06;;;5.66;81.67
19884;BME280;10104;50.732;10.174;2023-04-15T03:07:50;96922.16;;;5.55;82.22
19884;BME280;10104;50.732;10.174;2023-04-15T03:10:12;96923.78;;;5.71;80.90
19884;BME280;10104;50.732;10.174;2023-04-15T03:12:34;96921.25;;;5.78;79.90
19884;BME280;10104;50.732;10.174;2023-04-15T03:14:55;96920.63;;;5.90;79.42
19884;BME280;10104;50.732;10.174;2023-04-15T03:17:17;96927.03;;;5.73;83.13
19884;BME280;10104;50.732;10.174;2023-04-15T03:19:38;96920.63;;;5.90;80.51
19884;BME280;10104;50.732;10.174;2023-04-15T03:22:00;96927.22;;;5.72;83.30
19884;BME280;10104;50.732;10.174;2023-04-15T03:24:21;96923.44;;;5.89;81.15
19884;BME280;10104;50.732;10.174;2023-04-15T03:26:43;96917.41;;;5.80;82.95
19884;BME280;10104;50.732;10.174;2023-04-15T03:29:05;96917.88;;;5.84;82.04
19884;BME280;10104;50.732;10.174;2023-04-15T03:31:26;96913.09;;;5.73;83.83
19884;BME280;10104;50.732;10.174;2023-04-15T03:33:48;96920.44;;;5.92;81.93
19884;BME280;10104;50.732;10.174;2023-04-15T03:36:10;96913.44;;;5.99;80.85
19884;BME280;10104;50.732;10.174;2023-04-15T03:38:32;96922.78;;;6.01;80.35
19884;BME280;10104;50.732;10.174;2023-04-15T03:40:53;96927.13;;;5.94;81.93
19884;BME280;10104;50.732;10.174;2023-04-15T03:43:15;96932.84;;;5.98;81.99
19884;BME280;10104;50.732;10.174;2023-04-15T03:45:36;96925.75;;;6.13;81.52
19884;BME280;10104;50.732;10.174;2023-04-15T03:47:58;96922.38;;;6.19;81.42
19884;BME280;10104;50.732;10.174;2023-04-15T03:50:37;96925.00;;;6.19;82.54
19884;BME280;10104;50.732;10.174;2023-04-15T03:52:58;96918.84;;;6.27;80.57
19884;BME280;10104;50.732;10.174;2023-04-15T03:55:20;96909.97;;;6.28;80.39
19884;BME280;10104;50.732;10.174;2023-04-15T03:57:41;96913.09;;;6.38;80.21
19884;BME280;10104;50.732;10.174;2023-04-15T04:00:07;96911.59;;;6.29;81.76
19884;BME280;10104;50.732;10.174;2023-04-15T04:02:29;96909.50;;;6.24;82.45
19884;BME280;10104;50.732;10.174;2023-04-15T04:04:51;96915.72;;;6.38;80.82
19884;BME280;10104;50.732;10.174;2023-04-15T04:07:16;96922.19;;;6.35;80.83
19884;BME280;10104;50.732;10.174;2023-04-15T04:09:38;96916.03;;;6.28;81.84
19884;BME280;10104;50.732;10.174;2023-04-15T04:12:01;96918.81;;;6.41;80.82
19884;BME280;10104;50.732;10.174;2023-04-15T04:14:24;96917.94;;;6.34;81.72
19884;BME280;10104;50.732;10.174;2023-04-15T04:16:49;96923.19;;;6.34;82.41
19884;BME280;10104;50.732;10.174;2023-04-15T04:19:11;96923.63;;;6.38;81.37
19884;BME280;10104;50.732;10.174;2023-04-15T04:21:34;96921.97;;;6.37;82.11
19884;BME280;10104;50.732;10.174;2023-04-15T04:23:56;96927.56;;;6.48;81.06
19884;BME280;10104;50.732;10.174;2023-04-15T04:26:19;96933.78;;;6.41;81.93
19884;BME280;10104;50.732;10.174;2023-04-15T04:28:40;96937.00;;;6.43;82.21
19884;BME280;10104;50.732;10.174;2023-04-15T04:31:02;96932.81;;;6.48;81.62
19884;BME280;10104;50.732;10.174;2023-04-15T04:33:23;96935.44;;;6.48;82.69
19884;BME280;10104;50.732;10.174;2023-04-15T04:35:45;96928.69;;;6.61;81.34
19884;BME280;10104;50.732;10.174;2023-04-15T04:38:07;96938.22;;;6.62;81.83
19884;BME280;10104;50.732;10.174;2023-04-15T04:40:28;96935.84;;;6.67;82.27
19884;BME280;10104;50.732;10.174;2023-04-15T04:42:50;96932.84;;;6.70;81.37
19884;BME280;10104;50.732;10.174;2023-04-15T04:45:11;96935.66;;;6.68;82.68
19884;BME280;10104;50.732;10.174;2023-04-15T04:47:33;96944.56;;;6.67;84.23
19884;BME280;10104;50.732;10.174;2023-04-15T04:49:55;96941.44;;;6.78;82.32
19884;BME280;10104;50.732;10.174;2023-04-15T04:52:16;96938.81;;;6.78;83.40
19884;BME280;10104;50.732;10.174;2023-04-15T04:54:38;96940.94;;;6.89;82.50
19884;BME280;10104;50.732;10.174;2023-04-15T04:56:59;96938.56;;;6.95;82.41
19884;BME280;10104;50.732;10.174;2023-04-15T04:59:21;96940.00;;;6.97;83.03
19884;BME280;10104;50.732;10.174;2023-04-15T05:01:42;96940.31;;;7.09;82.04
19884;BME280;10104;50.732;10.174;2023-04-15T05:04:04;96944.00;;;7.14;82.01
19884;BME280;10104;50.732;10.174;2023-04-15T05:06:27;96936.56;;;7.24;81.92
19884;BME280;10104;50.732;10.174;2023-04-15T05:08:50;96947.59;;;7.35;80.90
19884;BME280;10104;50.732;10.174;2023-04-15T05:11:12;96935.50;;;7.40;81.14
19884;BME280;10104;50.732;10.174;2023-04-15T05:13:33;96936.34;;;7.47;81.45
19884;BME280;10104;50.732;10.174;2023-04-15T05:15:58;96941.88;;;7.52;82.15
19884;BME280;10104;50.732;10.174;2023-04-15T05:18:20;96941.91;;;7.59;81.36
19884;BME280;10104;50.732;10.174;2023-04-15T05:20:41;96943.78;;;7.65;81.89
19884;BME280;10104;50.732;10.174;2023-04-15T05:23:03;96940.31;;;7.64;83.08
19884;BME280;10104;50.732;10.174;2023-04-15T05:25:24;96940.38;;;7.71;83.71
19884;BME280;10104;50.732;10.174;2023-04-15T05:27:46;96938.41;;;7.86;82.69
19884;BME280;10104;50.732;10.174;2023-04-15T05:30:08;96937.03;;;7.97;82.03
19884;BME280;10104;50.732;10.174;2023-04-15T05:32:31;96937.75;;;8.12;80.93
19884;BME280;10104;50.732;10.174;2023-04-15T05:34:53;96941.41;;;8.18;81.07
19884;BME280;10104;50.732;10.174;2023-04-15T05:37:14;96942.13;;;8.33;80.84
19884;BME280;10104;50.732;10.174;2023-04-15T05:39:36;96930.81;;;8.45;80.21
19884;BME280;10104;50.732;10.174;2023-04-15T05:41:57;96932.03;;;8.49;80.95
19884;BME280;10104;50.732;10.174;2023-04-15T05:44:20;96939.34;;;8.61;80.26
19884;BME280;10104;50.732;10.174;2023-04-15T05:46:41;96939.34;;;8.61;82.52
19884;BME280;10104;50.732;10.174;2023-04-15T05:49:03;96930.47;;;8.68;82.55
19884;BME280;10104;50.732;10.174;2023-04-15T05:51:25;96929.47;;;8.82;82.12
19884;BME280;10104;50.732;10.174;2023-04-15T05:53:46;96936.75;;;8.74;83.58
19884;BME280;10104;50.732;10.174;2023-04-15T05:56:08;96941.84;;;8.82;82.64
19884;BME280;10104;50.732;10.174;2023-04-15T05:58:29;96938.59;;;8.80;84.21
19884;BME280;10104;50.732;10.174;2023-04-15T06:00:51;96943.03;;;8.66;85.55
19884;BME280;10104;50.732;10.174;2023-04-15T06:03:13;96942.81;;;8.61;85.65
19884;BME280;10104;50.732;10.174;2023-04-15T06:05:34;96938.56;;;8.67;84.86
19884;BME280;10104;50.732;10.174;2023-04-15T06:07:56;96941.41;;;8.72;84.88
19884;BME280;10104;50.732;10.174;2023-04-15T06:10:17;96941.63;;;8.64;86.00
19884;BME280;10104;50.732;10.174;2023-04-15T06:12:39;96942.00;;;8.61;86.16
19884;BME280;10104;50.732;10.174;2023-04-15T06:15:01;96931.88;;;8.77;84.41
19884;BME280;10104;50.732;10.174;2023-04-15T06:17:22;96937.19;;;8.90;83.71
19884;BME280;10104;50.732;10.174;2023-04-15T06:19:44;96935.97;;;8.93;84.59
19884;BME280;10104;50.732;10.174;2023-04-15T06:22:08;96938.84;;;9.05;83.64
19884;BME280;10104;50.732;10.174;2023-04-15T06:24:30;96942.91;;;9.01;85.11
19884;BME280;10104;50.732;10.174;2023-04-15T06:26:53;96935.59;;;9.09;84.24
19884;BME280;10104;50.732;10.174;2023-04-15T06:29:14;96937.41;;;9.15;84.85
19884;BME280;10104;50.732;10.174;2023-04-15T06:31:36;96942.69;;;9.15;84.49
19884;BME280;10104;50.732;10.174;2023-04-15T06:33:58;96938.03;;;9.24;83.94
19884;BME280;10104;50.732;10.174;2023-04-15T06:36:19;96932.34;;;9.20;85.65
19884;BME280;10104;50.732;10.174;2023-04-15T06:38:41;96938.84;;;9.18;87.31
19884;BME280;10104;50.732;10.174;2023-04-15T06:41:03;96935.59;;;9.09;87.42
19884;BME280;10104;50.732;10.174;2023-04-15T06:43:25;96936.81;;;9.33;86.34
19884;BME280;10104;50.732;10.174;2023-04-15T06:45:46;96945.75;;;9.32;86.55
19884;BME280;10104;50.732;10.174;2023-04-15T06:48:08;96939.25;;;9.15;88.08
19884;BME280;10104;50.732;10.174;2023-04-15T06:50:29;96940.88;;;9.16;87.95
19884;BME280;10104;50.732;10.174;2023-04-15T06:52:52;96939.06;;;9.29;87.57
19884;BME280;10104;50.732;10.174;2023-04-15T06:55:14;96936.81;;;9.13;89.65
19884;BME280;10104;50.732;10.174;2023-04-15T06:57:35;96940.84;;;9.03;89.77
19884;BME280;10104;50.732;10.174;2023-04-15T06:59:57;96947.56;;;8.92;90.71
19884;BME280;10104;50.732;10.174;2023-04-15T07:02:18;96948.75;;;8.89;91.70
19884;BME280;10104;50.732;10.174;2023-04-15T07:04:40;96942.84;;;8.74;92.65
19884;BME280;10104;50.732;10.174;2023-04-15T07:07:02;96939.75;;;8.64;93.06
19884;BME280;10104;50.732;10.174;2023-04-15T07:09:23;96943.59;;;8.48;95.10
19884;BME280;10104;50.732;10.174;2023-04-15T07:11:45;96939.16;;;8.56;94.36
19884;BME280;10104;50.732;10.174;2023-04-15T07:14:07;96934.69;;;8.56;94.49
19884;BME280;10104;50.732;10.174;2023-04-15T07:16:28;96944.41;;;8.49;94.81
19884;BME280;10104;50.732;10.174;2023-04-15T07:18:50;96942.94;;;8.40;95.34
19884;BME280;10104;50.732;10.174;2023-04-15T07:21:12;96934.97;;;8.27;96.36
19884;BME280;10104;50.732;10.174;2023-04-15T07:23:34;96942.31;;;8.31;97.11
19884;BME280;10104;50.732;10.174;2023-04-15T07:25:55;96940.41;;;8.19;97.14
19884;BME280;10104;50.732;10.174;2023-04-15T07:28:17;96945.84;;;8.10;98.51
19884;BME280;10104;50.732;10.174;2023-04-15T07:30:39;96945.69;;;8.19;97.11
19884;BME280;10104;50.732;10.174;2023-04-15T07:33:00;96953.16;;;8.15;99.13
19884;BME280;10104;50.732;10.174;2023-04-15T07:35:22;96945.03;;;8.10;98.39
19884;BME280;10104;50.732;10.174;2023-04-15T07:37:44;96943.38;;;8.09;98.78
19884;BME280;10104;50.732;10.174;2023-04-15T07:40:06;96947.25;;;8.06;99.37
19884;BME280;10104;50.732;10.174;2023-04-15T07:42:29;96946.00;;;8.02;99.98
19884;BME280;10104;50.732;10.174;2023-04-15T07:44:50;96945.03;;;8.10;98.31
19884;BME280;10104;50.732;10.174;2023-04-15T07:47:12;96944.97;;;8.03;99.12
19884;BME280;10104;50.732;10.174;2023-04-15T07:49:33;96953.56;;;8.12;99.15
19884;BME280;10104;50.732;10.174;2023-04-15T07:51:55;96948.41;;;8.32;98.48
19884;BME280;10104;50.732;10.174;2023-04-15T07:54:17;96952.06;;;8.31;97.90
19884;BME280;10104;50.732;10.174;2023-04-15T07:56:39;96953.31;;;8.48;97.22
19884;BME280;10104;50.732;10.174;2023-04-15T07:59:01;96955.78;;;8.56;96.33
19884;BME280;10104;50.732;10.174;2023-04-15T08:01:25;96960.47;;;8.61;95.81
19884;BME280;10104;50.732;10.174;2023-04-15T08:03:47;96964.56;;;8.63;95.85
19884;BME280;10104;50.732;10.174;2023-04-15T08:06:08;96957.06;;;8.80;95.00
19884;BME280;10104;50.732;10.174;2023-04-15T08:08:30;96960.34;;;8.95;93.82
19884;BME280;10104;50.732;10.174;2023-04-15T08:10:52;96957.09;;;8.93;94.10
19884;BME280;10104;50.732;10.174;2023-04-15T08:13:13;96960.78;;;9.12;93.05
19884;BME280;10104;50.732;10.174;2023-04-15T08:15:35;96959.34;;;9.16;92.65
19884;BME280;10104;50.732;10.174;2023-04-15T08:17:57;96957.34;;;9.31;92.33
19884;BME280;10104;50.732;10.174;2023-04-15T08:20:21;96959.34;;;9.16;92.19
19884;BME280;10104;50.732;10.174;2023-04-15T08:22:42;96958.31;;;8.97;94.09
19884;BME280;10104;50.732;10.174;2023-04-15T08:25:04;96959.53;;;9.01;94.10
19884;BME280;10104;50.732;10.174;2023-04-15T08:27:25;96958.34;;;9.10;93.76
19884;BME280;10104;50.732;10.174;2023-04-15T08:29:47;96959.13;;;8.91;94.92
19884;BME280;10104;50.732;10.174;2023-04-15T08:32:09;96962.56;;;8.85;95.78
19884;BME280;10104;50.732;10.174;2023-04-15T08:34:30;96957.47;;;8.83;97.11
19884;BME280;10104;50.732;10.174;2023-04-15T08:36:52;96962.34;;;8.80;96.71
19884;BME280;10104;50.732;10.174;2023-04-15T08:39:14;96963.97;;;8.81;96.71
19884;BME280;10104;50.732;10.174;2023-04-15T08:41:44;96959.28;;;8.70;97.96
19884;BME280;10104;50.732;10.174;2023-04-15T08:44:09;96968.22;;;8.75;97.05
19884;BME280;10104;50.732;10.174;2023-04-15T08:46:31;96962.16;;;8.81;97.14
19884;BME280;10104;50.732;10.174;2023-04-15T08:48:57;96971.91;;;8.81;97.63
19884;BME280;10104;50.732;10.174;2023-04-15T08:51:19;96968.88;;;8.97;96.77
19884;BME280;10104;50.732;10.174;2023-04-15T08:53:43;96968.06;;;8.90;96.70
19884;BME280;10104;50.732;10.174;2023-04-15T08:56:06;96967.22;;;8.89;97.38
19884;BME280;10104;50.732;10.174;2023-04-15T08:58:30;96973.75;;;8.93;96.68
19884;BME280;10104;50.732;10.174;2023-04-15T09:00:52;96974.97;;;8.98;96.51
19884;BME280;10104;50.732;10.174;2023-04-15T09:03:15;96973.78;;;9.13;96.04
19884;BME280;10104;50.732;10.174;2023-04-15T09:05:37;96971.94;;;9.14;95.31
19884;BME280;10104;50.732;10.174;2023-04-15T09:08:00;96974.38;;;9.15;95.28
19884;BME280;10104;50.732;10.174;2023-04-15T09:10:21;96976.03;;;9.23;95.45
19884;BME280;10104;50.732;10.174;2023-04-15T09:12:43;96973.38;;;9.29;94.63
19884;BME280;10104;50.732;10.174;2023-04-15T09:15:05;96983.34;;;9.27;94.47
19884;BME280;10104;50.732;10.174;2023-04-15T09:17:27;96983.13;;;9.22;94.76
19884;BME280;10104;50.732;10.174;2023-04-15T09:19:49;96989.44;;;9.21;95.36
19884;BME280;10104;50.732;10.174;2023-04-15T09:22:31;96996.09;;;9.04;97.29
19884;BME280;10104;50.732;10.174;2023-04-15T09:24:53;96995.13;;;9.18;96.08
19884;BME280;10104;50.732;10.174;2023-04-15T09:27:16;97007.50;;;9.18;96.03
19884;BME280;10104;50.732;10.174;2023-04-15T09:29:40;97005.06;;;9.16;96.72
19884;BME280;10104;50.732;10.174;2023-04-15T09:32:09;97006.28;;;9.14;97.08
19884;BME280;10104;50.732;10.174;2023-04-15T09:34:35;97005.06;;;9.16;96.12
19884;BME280;10104;50.732;10.174;2023-04-15T09:36:57;97008.69;;;9.09;97.52
19884;BME280;10104;50.732;10.174;2023-04-15T09:39:18;97008.72;;;9.15;96.91
19884;BME280;10104;50.732;10.174;2023-04-15T09:41:40;97011.78;;;9.19;96.91
19884;BME280;10104;50.732;10.174;2023-04-15T09:44:03;97006.28;;;9.20;96.96
19884;BME280;10104;50.732;10.174;2023-04-15T09:46:41;97007.31;;;9.26;96.55
19884;BME280;10104;50.732;10.174;2023-04-15T09:49:07;97004.28;;;9.36;96.40
19884;BME280;10104;50.732;10.174;2023-04-15T09:51:34;97008.75;;;9.28;96.15
19884;BME280;10104;50.732;10.174;2023-04-15T09:53:55;97015.47;;;9.38;95.65
19884;BME280;10104;50.732;10.174;2023-04-15T09:56:21;97008.34;;;9.51;95.37
19884;BME280;10104;50.732;10.174;2023-04-15T09:58:42;97007.13;;;9.47;96.45
19884;BME280;10104;50.732;10.174;2023-04-15T10:01:04;97011.81;;;9.52;96.61
19884;BME280;10104;50.732;10.174;2023-04-15T10:03:32;97015.06;;;9.54;96.33
19884;BME280;10104;50.732;10.174;2023-04-15T10:05:59;97014.44;;;9.71;95.93
19884;BME280;10104;50.732;10.174;2023-04-15T10:08:22;97012.00;;;9.63;96.55
19884;BME280;10104;50.732;10.174;2023-04-15T10:10:46;97013.22;;;9.81;95.10
19884;BME280;10104;50.732;10.174;2023-04-15T10:13:08;97014.06;;;9.81;95.74
19884;BME280;10104;50.732;10.174;2023-04-15T10:15:31;97017.91;;;9.79;95.15
19884;BME280;10104;50.732;10.174;2023-04-15T10:17:55;97021.75;;;9.69;95.05
19884;BME280;10104;50.732;10.174;2023-04-15T10:20:18;97019.72;;;9.65;96.47
19884;BME280;10104;50.732;10.174;2023-04-15T10:22:41;97026.84;;;9.91;93.85
19884;BME280;10104;50.732;10.174;2023-04-15T10:25:02;97028.47;;;9.85;95.11
19884;BME280;10104;50.732;10.174;2023-04-15T10:27:26;97029.91;;;9.81;95.74
19884;BME280;10104;50.732;10.174;2023-04-15T10:29:51;97027.47;;;9.86;94.77
19884;BME280;10104;50.732;10.174;2023-04-15T10:32:13;97032.75;;;9.93;94.08
19884;BME280;10104;50.732;10.174;2023-04-15T10:34:36;97035.41;;;9.86;94.59
19884;BME280;10104;50.732;10.174;2023-04-15T10:37:01;97034.97;;;9.89;95.11
19884;BME280;10104;50.732;10.174;2023-04-15T10:42:12;97044.53;;;10.10;93.10
19884;BME280;10104;50.732;10.174;2023-04-15T10:44:38;97035.16;;;10.01;92.81
19884;BME280;10104;50.732;10.174;2023-04-15T10:46:59;97043.91;;;10.01;93.30
19884;BME280;10104;50.732;10.174;2023-04-15T10:49:24;97053.47;;;10.02;94.08
19884;BME280;10104;50.732;10.174;2023-04-15T10:51:51;97051.25;;;9.99;94.03
19884;BME280;10104;50.732;10.174;2023-04-15T10:54:29;97060.19;;;10.05;93.44
19884;BME280;10104;50.732;10.174;2023-04-15T10:57:06;97056.94;;;10.03;93.17
19884;BME280;10104;50.732;10.174;2023-04-15T10:59:33;97053.91;;;9.99;93.20
19884;BME280;10104;50.732;10.174;2023-04-15T11:02:02;97061.84;;;9.99;93.82
19884;BME280;10104;50.732;10.174;2023-04-15T11:07:13;97053.91;;;9.86;94.51
19884;BME280;10104;50.732;10.174;2023-04-15T11:09:35;97058.75;;;9.76;95.21
19884;BME280;10104;50.732;10.174;2023-04-15T11:12:06;97052.66;;;9.82;95.99
19884;BME280;10104;50.732;10.174;2023-04-15T11:14:29;97055.53;;;9.81;95.93
19884;BME280;10104;50.732;10.174;2023-04-15T11:16:50;97059.56;;;9.70;96.13
19884;BME280;10104;50.732;10.174;2023-04-15T11:19:12;97065.09;;;9.75;95.77
19884;BME280;10104;50.732;10.174;2023-04-15T11:21:33;97056.13;;;9.76;96.75
19884;BME280;10104;50.732;10.174;2023-04-15T11:23:55;97074.25;;;9.79;96.47
19884;BME280;10104;50.732;10.174;2023-04-15T11:26:17;97067.31;;;9.91;96.17
19884;BME280;10104;50.732;10.174;2023-04-15T11:28:41;97067.72;;;9.95;96.10
19884;BME280;10104;50.732;10.174;2023-04-15T11:31:14;97068.31;;;10.10;94.94
19884;BME280;10104;50.732;10.174;2023-04-15T11:33:43;97067.53;;;10.23;95.16
19884;BME280;10104;50.732;10.174;2023-04-15T11:36:05;97075.34;;;10.62;93.53
19884;BME280;10104;50.732;10.174;2023-04-15T11:38:27;97072.09;;;10.67;93.21
19884;BME280;10104;50.732;10.174;2023-04-15T11:40:49;97074.94;;;10.72;91.43
19884;BME280;10104;50.732;10.174;2023-04-15T11:43:16;97072.28;;;10.72;91.97
19884;BME280;10104;50.732;10.174;2023-04-15T11:45:49;97080.25;;;10.65;92.23
19884;BME280;10104;50.732;10.174;2023-04-15T11:48:12;97078.41;;;10.72;91.49
19884;BME280;10104;50.732;10.174;2023-04-15T11:50:35;97080.78;;;10.80;90.89
19884;BME280;10104;50.732;10.174;2023-04-15T11:52:58;97080.63;;;10.69;92.01
19884;BME280;10104;50.732;10.174;2023-04-15T11:55:24;97080.06;;;10.67;92.66
19884;BME280;10104;50.732;10.174;2023-04-15T11:57:46;97078.50;;;10.33;91.59
19884;BME280;10104;50.732;10.174;2023-04-15T12:00:08;97082.16;;;10.19;93.52
19884;BME280;10104;50.732;10.174;2023-04-15T12:02:30;97081.13;;;10.13;94.23
19884;BME280;10104;50.732;10.174;2023-04-15T12:05:02;97085.22;;;10.02;95.56
19884;BME280;10104;50.732;10.174;2023-04-15T12:07:24;97086.66;;;10.18;95.67
19884;BME280;10104;50.732;10.174;2023-04-15T12:09:54;97100.47;;;10.07;95.23
19884;BME280;10104;50.732;10.174;2023-04-15T12:12:17;97093.75;;;10.04;94.62
19884;BME280;10104;50.732;10.174;2023-04-15T12:14:39;97094.97;;;10.08;94.58
19884;BME280;10104;50.732;10.174;2023-04-15T12:17:03;97097.84;;;9.87;95.68
19884;BME280;10104;50.732;10.174;2023-04-15T12:19:27;97097.19;;;9.72;96.95
19884;BME280;10104;50.732;10.174;2023-04-15T12:21:51;97103.94;;;9.74;97.30
19884;BME280;10104;50.732;10.174;2023-04-15T12:24:13;97103.31;;;9.86;97.86
19884;BME280;10104;50.732;10.174;2023-04-15T12:26:44;97112.28;;;9.98;96.55
19884;BME280;10104;50.732;10.174;2023-04-15T12:29:07;97109.63;;;9.98;96.68
19884;BME280;10104;50.732;10.174;2023-04-15T12:31:29;97113.69;;;9.94;97.32
19884;BME280;10104;50.732;10.174;2023-04-15T12:33:51;97118.78;;;10.08;96.48
19884;BME280;10104;50.732;10.174;2023-04-15T12:36:15;97114.94;;;10.24;95.55
19884;BME280;10104;50.732;10.174;2023-04-15T12:38:36;97123.47;;;10.26;95.47
19884;BME280;10104;50.732;10.174;2023-04-15T12:40:58;97129.38;;;10.48;94.35